Time,TemperatureF,DewpointF,PressureIn,WindDirection,WindDirectionDegrees,WindSpeedMPH,WindSpeedGustMPH,Humidity,HourlyPrecipIn,Conditions,Clouds,dailyrainin,SolarRadiationWatts/m^2,SoftwareType,DateUTC
2013-01-09 00:01:00,48.0,47.2,30.01,SSE,155,0.0,4.0,97,0.12,,---,1.12,0.00,VWS V14.00,2013-01-09 06:01:00,
2013-01-09 00:06:00,48.0,47.2,30.02,SSE,155,2.0,4.0,97,0.10,,---,0.01,0.00,VWS V14.00,2013-01-09 06:06:00,
2013-01-09 00:11:00,48.0,47.2,30.03,SSE,155,0.0,4.0,97,0.11,,---,0.02,0.00,VWS V14.00,2013-01-09 06:11:00,
2013-01-09 00:16:00,48.0,47.2,30.01,SSE,155,0.0,0.0,97,0.10,,---,0.03,0.00,VWS V14.00,2013-01-09 06:16:00,
2013-01-09 00:21:00,48.0,47.2,30.01,SSE,155,0.0,5.0,97,0.11,,---,0.04,0.00,VWS V14.00,2013-01-09 06:21:00,
2013-01-09 00:26:00,48.0,47.2,30.00,SSE,155,0.0,5.0,97,0.12,,---,0.06,0.00,VWS V14.00,2013-01-09 06:26:00,
2013-01-09 00:31:00,47.9,47.1,29.99,SSE,155,0.0,5.0,97,0.13,,---,0.07,0.00,VWS V14.00,2013-01-09 06:31:00,
2013-01-09 00:36:00,47.9,47.1,29.98,SSE,155,1.0,4.0,97,0.13,,---,0.08,0.00,VWS V14.00,2013-01-09 06:36:00,
2013-01-09 00:41:00,47.9,47.1,29.98,SSE,155,4.0,6.0,97,0.14,,---,0.09,0.00,VWS V14.00,2013-01-09 06:41:00,
2013-01-09 00:46:00,47.8,47.0,29.98,SSE,155,0.0,6.0,97,0.12,,---,0.09,0.00,VWS V14.00,2013-01-09 06:46:00,
2013-01-09 00:51:00,47.8,47.0,30.00,SSE,155,0.0,6.0,97,0.12,,---,0.09,0.00,VWS V14.00,2013-01-09 06:51:00,
2013-01-09 00:56:00,47.8,47.0,29.99,SSE,155,1.0,7.0,97,0.11,,---,0.10,0.00,VWS V14.00,2013-01-09 06:56:00,
2013-01-09 01:01:00,47.8,47.0,29.98,SSE,155,0.0,7.0,97,0.11,,---,0.10,0.00,VWS V14.00,2013-01-09 07:01:00,
2013-01-09 01:06:00,47.7,46.9,29.98,SSE,155,1.0,5.0,97,0.11,,---,0.11,0.00,VWS V14.00,2013-01-09 07:06:00,
2013-01-09 01:11:00,47.7,46.9,29.99,SSE,155,0.0,5.0,97,0.12,,---,0.12,0.00,VWS V14.00,2013-01-09 07:11:00,
2013-01-09 01:16:00,47.8,47.0,30.00,SSE,155,0.0,5.0,97,0.09,,---,0.12,0.00,VWS V14.00,2013-01-09 07:16:00,
2013-01-09 01:21:00,47.8,47.0,30.01,SSE,155,0.0,5.0,97,0.09,,---,0.12,0.00,VWS V14.00,2013-01-09 07:21:00,
2013-01-09 01:26:00,47.9,47.1,30.00,SSE,155,6.0,7.0,97,0.07,,---,0.12,0.00,VWS V14.00,2013-01-09 07:26:00,
2013-01-09 01:31:00,47.9,47.1,30.00,SSE,155,5.0,9.0,97,0.08,,---,0.13,0.00,VWS V14.00,2013-01-09 07:31:00,
2013-01-09 01:36:00,48.0,47.2,30.01,SSE,155,8.0,12.0,97,0.07,,---,0.14,0.00,VWS V14.00,2013-01-09 07:36:00,
2013-01-09 01:41:00,48.1,47.3,30.01,SSE,155,5.0,12.0,97,0.08,,---,0.15,0.00,VWS V14.00,2013-01-09 07:41:00,
2013-01-09 01:45:00,48.2,47.4,30.00,SSE,155,6.0,12.0,97,0.07,,---,0.16,0.00,VWS V14.00,2013-01-09 07:45:00,
2013-01-09 01:50:00,48.2,47.4,30.01,SSE,155,4.0,12.0,97,0.08,,---,0.17,0.00,VWS V14.00,2013-01-09 07:50:00,
2013-01-09 01:56:00,48.3,47.5,30.01,SSE,155,4.0,8.0,97,0.08,,---,0.17,0.00,VWS V14.00,2013-01-09 07:56:00,
2013-01-09 02:00:00,48.3,47.5,30.01,SSE,155,0.0,8.0,97,0.09,,---,0.18,0.00,VWS V14.00,2013-01-09 08:00:00,
2013-01-09 02:05:00,48.4,47.6,30.01,SSE,155,4.0,7.0,97,0.09,,---,0.19,0.00,VWS V14.00,2013-01-09 08:05:00,
2013-01-09 02:10:00,48.5,47.7,30.01,SSE,155,5.0,8.0,97,0.09,,---,0.19,0.00,VWS V14.00,2013-01-09 08:10:00,
2013-01-09 02:15:00,48.7,47.9,30.00,SSE,155,2.0,8.0,97,0.08,,---,0.20,0.00,VWS V14.00,2013-01-09 08:15:00,
2013-01-09 02:20:00,49.0,48.2,30.01,SSE,154,8.0,10.0,97,0.09,,---,0.21,0.00,VWS V14.00,2013-01-09 08:20:00,
2013-01-09 02:25:00,49.3,48.5,30.01,SSE,154,9.0,9.0,97,0.09,,---,0.21,0.00,VWS V14.00,2013-01-09 08:25:00,
2013-01-09 02:30:00,49.7,48.9,30.02,SE,140,9.0,14.0,97,0.10,,---,0.22,0.00,VWS V14.00,2013-01-09 08:30:00,
2013-01-09 02:35:00,50.0,49.2,30.01,SE,140,6.0,13.0,97,0.10,,---,0.23,0.00,VWS V14.00,2013-01-09 08:35:00,
2013-01-09 02:40:00,50.2,49.4,30.00,SE,136,10.0,14.0,97,0.10,,---,0.23,0.00,VWS V14.00,2013-01-09 08:40:00,
2013-01-09 02:45:00,50.4,49.6,30.00,SE,129,7.0,16.0,97,0.09,,---,0.24,0.00,VWS V14.00,2013-01-09 08:45:00,
2013-01-09 02:50:00,50.5,49.7,29.99,SE,124,7.0,16.0,97,0.10,,---,0.25,0.00,VWS V14.00,2013-01-09 08:50:00,
2013-01-09 02:55:00,50.6,49.8,29.99,ESE,123,6.0,14.0,97,0.10,,---,0.27,0.00,VWS V14.00,2013-01-09 08:55:00,
2013-01-09 03:00:00,50.7,49.9,29.99,SE,131,8.0,19.0,97,0.11,,---,0.28,0.00,VWS V14.00,2013-01-09 09:00:00,
2013-01-09 03:05:00,51.0,50.2,29.99,SE,127,12.0,15.0,97,0.10,,---,0.28,0.00,VWS V14.00,2013-01-09 09:05:00,
2013-01-09 03:10:00,51.4,50.6,29.98,SE,132,9.0,20.0,97,0.10,,---,0.28,0.00,VWS V14.00,2013-01-09 09:10:00,
2013-01-09 03:15:00,51.6,50.8,29.98,SE,130,12.0,16.0,97,0.08,,---,0.28,0.00,VWS V14.00,2013-01-09 09:15:00,
2013-01-09 03:20:00,51.9,51.1,29.98,SE,128,9.0,17.0,97,0.08,,---,0.28,0.00,VWS V14.00,2013-01-09 09:20:00,
2013-01-09 03:25:00,52.0,51.2,29.98,SE,126,6.0,17.0,97,0.08,,---,0.29,0.00,VWS V14.00,2013-01-09 09:25:00,
2013-01-09 03:30:00,52.1,51.3,29.98,SE,135,15.0,20.0,97,0.08,,---,0.29,0.00,VWS V14.00,2013-01-09 09:30:00,
2013-01-09 03:35:00,52.2,51.4,29.99,SE,132,13.0,20.0,97,0.07,,---,0.29,0.00,VWS V14.00,2013-01-09 09:35:00,
2013-01-09 03:40:00,52.3,51.5,29.99,SE,144,6.0,22.0,97,0.07,,---,0.29,0.00,VWS V14.00,2013-01-09 09:40:00,
2013-01-09 03:45:00,52.3,51.5,29.99,SE,138,13.0,17.0,97,0.07,,---,0.30,0.00,VWS V14.00,2013-01-09 09:45:00,
2013-01-09 03:50:00,52.3,51.5,29.99,SE,132,11.0,17.0,97,0.07,,---,0.30,0.00,VWS V14.00,2013-01-09 09:50:00,
2013-01-09 03:55:00,52.3,51.5,29.99,SE,138,14.0,19.0,97,0.04,,---,0.30,0.00,VWS V14.00,2013-01-09 09:55:00,
2013-01-09 04:00:00,52.4,51.6,29.98,SE,140,12.0,19.0,97,0.06,,---,0.32,0.00,VWS V14.00,2013-01-09 10:00:00,
2013-01-09 04:05:00,52.4,51.6,29.99,ESE,116,5.0,15.0,97,0.05,,---,0.33,0.00,VWS V14.00,2013-01-09 10:05:00,
2013-01-09 04:10:00,52.4,51.6,29.99,SE,135,6.0,15.0,97,0.07,,---,0.35,0.00,VWS V14.00,2013-01-09 10:10:00,
2013-01-09 04:15:00,52.4,51.6,29.98,SE,138,6.0,11.0,97,0.08,,---,0.36,0.00,VWS V14.00,2013-01-09 10:15:00,
2013-01-09 04:20:00,52.4,51.6,29.98,SE,138,6.0,11.0,97,0.09,,---,0.37,0.00,VWS V14.00,2013-01-09 10:20:00,
2013-01-09 04:25:00,52.4,51.6,29.99,SE,138,4.0,9.0,97,0.09,,---,0.37,0.00,VWS V14.00,2013-01-09 10:25:00,
2013-01-09 04:30:00,52.4,51.6,29.98,SE,138,4.0,9.0,97,0.10,,---,0.38,0.00,VWS V14.00,2013-01-09 10:30:00,
2013-01-09 04:35:00,52.4,51.6,29.97,SE,136,5.0,10.0,97,0.10,,---,0.39,0.00,VWS V14.00,2013-01-09 10:35:00,
2013-01-09 04:40:00,52.5,51.7,29.97,SE,137,7.0,10.0,97,0.11,,---,0.40,0.00,VWS V14.00,2013-01-09 10:40:00,
2013-01-09 04:45:00,52.5,51.7,29.97,SE,138,0.0,11.0,97,0.12,,---,0.41,0.00,VWS V14.00,2013-01-09 10:45:00,
2013-01-09 04:50:00,52.6,51.8,29.96,SE,139,4.0,11.0,97,0.13,,---,0.42,0.00,VWS V14.00,2013-01-09 10:50:00,
2013-01-09 04:55:00,52.6,51.8,29.96,SE,139,4.0,9.0,97,0.13,,---,0.43,0.00,VWS V14.00,2013-01-09 10:55:00,
2013-01-09 05:00:00,52.7,51.9,29.96,SE,139,4.0,9.0,97,0.14,,---,0.44,0.00,VWS V14.00,2013-01-09 11:00:00,
2013-01-09 05:05:00,52.7,51.9,29.96,SE,138,7.0,11.0,97,0.12,,---,0.44,0.00,VWS V14.00,2013-01-09 11:05:00,
2013-01-09 05:10:00,52.8,52.0,29.96,SE,132,9.0,13.0,97,0.12,,---,0.44,0.00,VWS V14.00,2013-01-09 11:10:00,
2013-01-09 05:15:00,52.9,52.1,29.96,SE,132,9.0,13.0,97,0.08,,---,0.44,0.00,VWS V14.00,2013-01-09 11:15:00,
2013-01-09 05:20:00,52.9,52.1,29.96,SE,132,9.0,14.0,97,0.09,,---,0.45,0.00,VWS V14.00,2013-01-09 11:20:00,
2013-01-09 05:25:00,53.0,52.2,29.96,SE,132,5.0,11.0,97,0.08,,---,0.45,0.00,VWS V14.00,2013-01-09 11:25:00,
2013-01-09 05:30:00,53.0,52.2,29.96,SE,130,7.0,12.0,97,0.08,,---,0.45,0.00,VWS V14.00,2013-01-09 11:30:00,
2013-01-09 05:35:00,53.1,52.3,29.96,SE,138,11.0,17.0,97,0.07,,---,0.45,0.00,VWS V14.00,2013-01-09 11:35:00,
2013-01-09 05:40:00,53.1,52.3,29.97,SE,136,11.0,17.0,97,0.08,,---,0.46,0.00,VWS V14.00,2013-01-09 11:40:00,
2013-01-09 05:45:00,53.2,52.4,29.97,SE,124,9.0,16.0,97,0.05,,---,0.46,0.00,VWS V14.00,2013-01-09 11:45:00,
2013-01-09 05:50:00,53.2,52.4,29.98,SE,130,11.0,16.0,97,0.05,,---,0.46,0.00,VWS V14.00,2013-01-09 11:50:00,
2013-01-09 05:55:00,53.2,52.4,29.98,SE,136,5.0,13.0,97,0.04,,---,0.47,0.00,VWS V14.00,2013-01-09 11:55:00,
2013-01-09 06:00:00,53.2,52.4,29.98,SE,130,2.0,13.0,97,0.04,,---,0.47,0.00,VWS V14.00,2013-01-09 12:00:00,
2013-01-09 06:05:00,53.2,52.4,29.98,SE,135,6.0,10.0,97,0.04,,---,0.48,0.00,VWS V14.00,2013-01-09 12:05:00,
2013-01-09 06:10:00,53.2,52.4,29.97,SE,136,6.0,10.0,97,0.04,,---,0.48,0.00,VWS V14.00,2013-01-09 12:10:00,
2013-01-09 06:15:00,53.1,52.3,29.97,SE,136,4.0,7.0,97,0.05,,---,0.49,0.00,VWS V14.00,2013-01-09 12:15:00,
2013-01-09 06:20:00,53.1,52.3,29.97,SE,136,1.0,7.0,97,0.06,,---,0.50,0.00,VWS V14.00,2013-01-09 12:20:00,
2013-01-09 06:25:00,53.1,52.3,29.98,SE,136,4.0,6.0,97,0.05,,---,0.50,0.00,VWS V14.00,2013-01-09 12:25:00,
2013-01-09 06:30:00,53.1,52.3,29.98,SE,136,1.0,6.0,97,0.06,,---,0.51,0.00,VWS V14.00,2013-01-09 12:30:00,
2013-01-09 06:35:00,53.1,52.3,29.99,SE,136,0.0,4.0,97,0.06,,---,0.51,0.00,VWS V14.00,2013-01-09 12:35:00,
2013-01-09 06:40:00,53.1,52.3,30.00,SE,136,0.0,4.0,97,0.07,,---,0.52,0.00,VWS V14.00,2013-01-09 12:40:00,
2013-01-09 06:45:00,53.1,52.3,30.00,SE,136,0.0,4.0,97,0.07,,---,0.53,0.00,VWS V14.00,2013-01-09 12:45:00,
2013-01-09 06:50:00,53.1,52.3,30.00,SE,136,1.0,6.0,97,0.08,,---,0.54,0.00,VWS V14.00,2013-01-09 12:50:00,
2013-01-09 06:55:00,53.1,52.3,30.01,SE,136,0.0,2.0,97,0.10,,---,0.56,0.00,VWS V14.00,2013-01-09 12:55:00,
2013-01-09 07:00:00,53.1,52.3,30.00,SE,136,0.0,4.0,97,0.11,,---,0.57,0.00,VWS V14.00,2013-01-09 13:00:00,
2013-01-09 07:05:00,53.1,52.3,30.00,SE,136,0.0,0.0,97,0.11,,---,0.58,0.00,VWS V14.00,2013-01-09 13:05:00,
2013-01-09 07:10:00,53.1,52.3,29.99,SE,136,4.0,4.0,97,0.12,,---,0.59,0.00,VWS V14.00,2013-01-09 13:10:00,
2013-01-09 07:15:00,53.1,52.3,29.98,SE,136,0.0,4.0,97,0.11,,---,0.60,0.00,VWS V14.00,2013-01-09 13:15:00,
2013-01-09 07:20:00,53.0,52.2,29.98,SE,136,2.0,5.0,97,0.12,,---,0.61,0.00,VWS V14.00,2013-01-09 13:20:00,
2013-01-09 07:25:00,53.0,52.2,30.00,SE,136,0.0,2.0,97,0.12,,---,0.62,0.00,VWS V14.00,2013-01-09 13:25:00,
2013-01-09 07:30:00,53.0,52.2,29.99,SE,136,0.0,2.0,97,0.12,,---,0.62,0.00,VWS V14.00,2013-01-09 13:30:00,
2013-01-09 07:35:00,53.0,52.2,30.00,SE,136,0.0,0.0,97,0.11,,---,0.62,0.00,VWS V14.00,2013-01-09 13:35:00,
2013-01-09 07:40:00,53.0,52.2,30.00,SE,136,0.0,5.0,97,0.12,,---,0.63,0.00,VWS V14.00,2013-01-09 13:40:00,
2013-01-09 07:45:00,53.0,52.2,30.00,SE,136,2.0,4.0,97,0.11,,---,0.63,0.00,VWS V14.00,2013-01-09 13:45:00,
2013-01-09 07:50:00,53.0,52.2,30.00,SE,136,0.0,4.0,97,0.11,,---,0.63,0.00,VWS V14.00,2013-01-09 13:50:00,
2013-01-09 07:55:00,53.0,52.2,30.00,SE,136,0.0,4.0,97,0.08,,---,0.63,0.00,VWS V14.00,2013-01-09 13:55:00,
2013-01-09 08:00:00,53.0,52.2,30.01,SE,136,0.0,4.0,97,0.08,,---,0.63,0.00,VWS V14.00,2013-01-09 14:00:00,
2013-01-09 08:05:00,53.1,52.3,30.01,SE,136,0.0,4.0,97,0.06,,---,0.63,0.00,VWS V14.00,2013-01-09 14:05:00,
2013-01-09 08:10:00,53.1,52.3,30.02,SE,136,0.0,4.0,97,0.06,,---,0.63,0.00,VWS V14.00,2013-01-09 14:10:00,
2013-01-09 08:15:00,53.1,52.3,30.02,SE,136,0.0,0.0,97,0.03,,---,0.63,0.00,VWS V14.00,2013-01-09 14:15:00,
2013-01-09 08:20:00,53.1,52.3,30.02,SE,136,0.0,0.0,97,0.03,,---,0.63,5.00,VWS V14.00,2013-01-09 14:20:00,
2013-01-09 08:25:00,53.1,52.3,30.02,SE,136,0.0,1.0,97,0.02,,---,0.63,5.00,VWS V14.00,2013-01-09 14:25:00,
2013-01-09 08:30:00,53.1,52.3,30.02,SE,136,0.0,2.0,97,0.02,,---,0.63,9.00,VWS V14.00,2013-01-09 14:30:00,
2013-01-09 08:35:00,53.1,52.3,30.02,SE,136,0.0,1.0,97,0.01,,---,0.63,11.00,VWS V14.00,2013-01-09 14:35:00,
2013-01-09 08:40:00,53.1,52.3,30.02,SE,136,1.0,2.0,97,0.01,,---,0.63,12.00,VWS V14.00,2013-01-09 14:40:00,
2013-01-09 08:45:00,53.1,52.3,30.03,SE,136,0.0,2.0,97,0.00,,---,0.63,14.00,VWS V14.00,2013-01-09 14:45:00,
2013-01-09 08:50:00,53.1,52.3,30.03,SE,136,0.0,2.0,97,0.00,,---,0.63,16.00,VWS V14.00,2013-01-09 14:50:00,
2013-01-09 08:55:00,53.1,52.3,30.03,SE,136,0.0,0.0,97,0.00,,---,0.63,16.00,VWS V14.00,2013-01-09 14:55:00,
2013-01-09 09:00:00,53.2,52.4,30.03,SE,136,1.0,1.0,97,0.00,,---,0.63,18.00,VWS V14.00,2013-01-09 15:00:00,
2013-01-09 09:05:00,53.2,52.4,30.03,SE,136,0.0,2.0,97,0.01,,---,0.64,21.00,VWS V14.00,2013-01-09 15:05:00,
2013-01-09 09:10:00,53.2,52.4,30.03,SE,136,2.0,2.0,97,0.01,,---,0.64,33.00,VWS V14.00,2013-01-09 15:10:00,
2013-01-09 09:15:00,53.3,52.5,30.03,SE,136,0.0,1.0,97,0.01,,---,0.64,44.00,VWS V14.00,2013-01-09 15:15:00,
2013-01-09 09:20:00,53.3,52.5,30.02,SE,136,0.0,1.0,97,0.01,,---,0.64,35.00,VWS V14.00,2013-01-09 15:20:00,
2013-01-09 09:25:00,53.4,52.6,30.03,SE,136,0.0,1.0,97,0.01,,---,0.64,37.00,VWS V14.00,2013-01-09 15:25:00,
2013-01-09 09:30:00,53.5,52.7,30.03,SE,136,0.0,1.0,97,0.01,,---,0.64,40.00,VWS V14.00,2013-01-09 15:30:00,
2013-01-09 09:35:00,53.5,52.7,30.02,SE,136,0.0,4.0,97,0.01,,---,0.64,37.00,VWS V14.00,2013-01-09 15:35:00,
2013-01-09 09:40:00,53.6,52.8,30.02,SE,136,2.0,4.0,97,0.01,,---,0.64,46.00,VWS V14.00,2013-01-09 15:40:00,
2013-01-09 09:45:00,53.6,52.8,30.02,SE,136,0.0,4.0,97,0.01,,---,0.64,40.00,VWS V14.00,2013-01-09 15:45:00,
2013-01-09 09:50:00,53.7,52.9,30.02,SE,136,2.0,5.0,97,0.01,,---,0.64,40.00,VWS V14.00,2013-01-09 15:50:00,
2013-01-09 09:55:00,53.7,52.9,30.01,SE,136,1.0,4.0,97,0.01,,---,0.64,40.00,VWS V14.00,2013-01-09 15:55:00,
2013-01-09 10:00:00,53.7,52.9,30.02,SE,136,4.0,6.0,97,0.01,,---,0.64,35.00,VWS V14.00,2013-01-09 16:00:00,
2013-01-09 10:05:00,53.6,52.8,30.00,SSE,150,6.0,8.0,97,0.00,,---,0.64,54.00,VWS V14.00,2013-01-09 16:05:00,
2013-01-09 10:10:00,53.6,52.8,30.00,SSE,150,1.0,8.0,97,0.00,,---,0.64,56.00,VWS V14.00,2013-01-09 16:10:00,
2013-01-09 10:15:00,53.6,52.8,30.00,SSE,150,0.0,5.0,97,0.00,,---,0.64,53.00,VWS V14.00,2013-01-09 16:15:00,
2013-01-09 10:20:00,53.6,52.8,30.00,SSE,150,4.0,5.0,97,0.00,,---,0.64,58.00,VWS V14.00,2013-01-09 16:20:00,
2013-01-09 10:25:00,53.6,52.8,30.00,SSE,150,0.0,4.0,97,0.00,,---,0.64,39.00,VWS V14.00,2013-01-09 16:25:00,
2013-01-09 10:30:00,53.7,52.9,30.01,SSE,150,1.0,4.0,97,0.00,,---,0.64,33.00,VWS V14.00,2013-01-09 16:30:00,
2013-01-09 10:35:00,53.7,52.9,30.01,SSE,150,2.0,5.0,97,0.00,,---,0.64,32.00,VWS V14.00,2013-01-09 16:35:00,
2013-01-09 10:40:00,53.7,52.9,30.01,SSE,150,4.0,6.0,97,0.00,,---,0.64,30.00,VWS V14.00,2013-01-09 16:40:00,
2013-01-09 10:45:00,53.6,52.8,30.01,SSE,150,4.0,5.0,97,0.00,,---,0.64,46.00,VWS V14.00,2013-01-09 16:45:00,
2013-01-09 10:50:00,53.5,52.7,30.01,SSE,150,4.0,7.0,97,0.00,,---,0.64,53.00,VWS V14.00,2013-01-09 16:50:00,
2013-01-09 10:55:00,53.5,52.7,30.02,SSE,150,0.0,0.0,97,0.00,,---,0.64,33.00,VWS V14.00,2013-01-09 16:55:00,
2013-01-09 11:00:00,53.5,52.7,30.01,SSE,150,2.0,4.0,97,0.01,,---,0.65,54.00,VWS V14.00,2013-01-09 17:00:00,
2013-01-09 11:05:00,53.5,52.7,30.00,SSE,150,1.0,5.0,97,0.01,,---,0.65,65.00,VWS V14.00,2013-01-09 17:05:00,
2013-01-09 11:10:00,53.5,52.7,30.00,SSE,150,1.0,5.0,97,0.02,,---,0.66,49.00,VWS V14.00,2013-01-09 17:10:00,
2013-01-09 11:15:00,53.5,52.7,30.00,SSE,150,4.0,6.0,97,0.03,,---,0.67,51.00,VWS V14.00,2013-01-09 17:15:00,
2013-01-09 11:20:00,53.4,52.6,30.00,SSE,150,0.0,6.0,97,0.04,,---,0.68,65.00,VWS V14.00,2013-01-09 17:20:00,
2013-01-09 11:25:00,53.5,52.7,30.00,SSE,150,1.0,5.0,97,0.04,,---,0.68,74.00,VWS V14.00,2013-01-09 17:25:00,
2013-01-09 11:30:00,53.5,52.7,30.00,SSE,150,4.0,6.0,97,0.05,,---,0.69,33.00,VWS V14.00,2013-01-09 17:30:00,
2013-01-09 11:35:00,53.5,52.7,30.00,SSE,150,0.0,2.0,97,0.05,,---,0.69,44.00,VWS V14.00,2013-01-09 17:35:00,
2013-01-09 11:40:00,53.4,52.6,30.00,SSE,150,1.0,5.0,97,0.05,,---,0.69,84.00,VWS V14.00,2013-01-09 17:40:00,
2013-01-09 11:45:00,53.3,52.5,29.99,SSE,150,6.0,6.0,97,0.06,,---,0.70,88.00,VWS V14.00,2013-01-09 17:45:00,
2013-01-09 11:50:00,53.1,52.3,29.98,SSE,153,1.0,8.0,97,0.06,,---,0.70,79.00,VWS V14.00,2013-01-09 17:50:00,
2013-01-09 11:55:00,52.8,52.0,29.96,SSE,159,2.0,7.0,97,0.07,,---,0.71,83.00,VWS V14.00,2013-01-09 17:55:00,
2013-01-09 12:00:00,52.5,51.7,29.96,SSE,167,7.0,9.0,97,0.07,,---,0.71,97.00,VWS V14.00,2013-01-09 18:00:00,
2013-01-09 12:05:00,52.2,51.4,29.95,South,170,1.0,7.0,97,0.06,,---,0.71,102.00,VWS V14.00,2013-01-09 18:05:00,
2013-01-09 12:10:00,52.0,51.2,29.93,South,182,7.0,10.0,97,0.06,,---,0.71,104.00,VWS V14.00,2013-01-09 18:10:00,
2013-01-09 12:15:00,51.9,51.1,29.93,South,182,1.0,7.0,97,0.05,,---,0.71,79.00,VWS V14.00,2013-01-09 18:15:00,
2013-01-09 12:20:00,51.7,50.9,29.93,South,182,4.0,7.0,97,0.05,,---,0.71,70.00,VWS V14.00,2013-01-09 18:20:00,
2013-01-09 12:25:00,51.6,50.8,29.92,South,182,1.0,5.0,97,0.03,,---,0.71,77.00,VWS V14.00,2013-01-09 18:25:00,
2013-01-09 12:30:00,51.5,50.7,29.92,South,182,0.0,6.0,97,0.03,,---,0.71,65.00,VWS V14.00,2013-01-09 18:30:00,
2013-01-09 12:35:00,51.5,50.7,29.92,South,182,3.0,7.0,97,0.02,,---,0.71,60.00,VWS V14.00,2013-01-09 18:35:00,
2013-01-09 12:40:00,51.4,50.6,29.91,South,182,3.0,7.0,97,0.02,,---,0.71,47.00,VWS V14.00,2013-01-09 18:40:00,
2013-01-09 12:41:00,51.4,50.6,29.90,South,182,3.0,7.0,97,0.02,,---,0.71,42.00,VWS V14.00,2013-01-09 18:41:00,
2013-01-09 12:44:00,51.3,50.5,29.90,South,182,0.0,5.0,97,0.03,,---,0.72,42.00,VWS V14.00,2013-01-09 18:44:00,
2013-01-09 12:48:00,51.2,50.4,29.86,West,263,0.0,5.0,97,0.03,,---,0.72,46.00,VWS V14.00,2013-01-09 18:48:00,
2013-01-09 12:53:00,51.1,50.3,29.85,West,263,6.0,6.0,97,0.02,,---,0.72,53.00,VWS V14.00,2013-01-09 18:53:00,
2013-01-09 12:58:00,51.0,50.2,29.87,West,259,0.0,7.0,97,0.02,,---,0.72,42.00,VWS V14.00,2013-01-09 18:58:00,
2013-01-09 13:03:00,50.9,50.1,29.83,West,259,4.0,6.0,97,0.01,,---,0.72,77.00,VWS V14.00,2013-01-09 19:03:00,
2013-01-09 13:08:00,50.8,50.0,29.84,West,259,3.0,6.0,97,0.01,,---,0.72,72.00,VWS V14.00,2013-01-09 19:08:00,
2013-01-09 13:13:00,50.8,50.0,29.83,West,259,1.0,8.0,97,0.01,,---,0.72,79.00,VWS V14.00,2013-01-09 19:13:00,
2013-01-09 13:18:00,50.8,50.0,29.82,West,269,5.0,10.0,97,0.01,,---,0.72,105.00,VWS V14.00,2013-01-09 19:18:00,
2013-01-09 13:23:00,50.8,50.0,29.80,West,267,12.0,12.0,97,0.01,,---,0.72,130.00,VWS V14.00,2013-01-09 19:23:00,
2013-01-09 13:28:00,50.9,50.1,29.81,West,264,2.0,13.0,97,0.01,,---,0.72,90.00,VWS V14.00,2013-01-09 19:28:00,
2013-01-09 13:33:00,51.0,50.2,29.81,West,264,1.0,6.0,97,0.01,,---,0.72,105.00,VWS V14.00,2013-01-09 19:33:00,
2013-01-09 13:38:00,51.0,50.2,29.81,West,262,8.0,8.0,97,0.01,,---,0.72,151.00,VWS V14.00,2013-01-09 19:38:00,
2013-01-09 13:43:00,51.1,50.3,29.82,West,259,2.0,7.0,97,0.01,,---,0.72,176.00,VWS V14.00,2013-01-09 19:43:00,
2013-01-09 13:48:00,51.2,50.4,29.82,West,259,2.0,7.0,97,0.01,,---,0.72,248.00,VWS V14.00,2013-01-09 19:48:00,
2013-01-09 13:53:00,51.5,50.7,29.82,West,259,3.0,6.0,97,0.00,,---,0.72,190.00,VWS V14.00,2013-01-09 19:53:00,
2013-01-09 13:58:00,51.7,50.9,29.84,West,259,1.0,6.0,97,0.00,,---,0.72,88.00,VWS V14.00,2013-01-09 19:58:00,
2013-01-09 14:03:00,51.7,50.9,29.84,West,259,1.0,3.0,97,0.00,,---,0.72,127.00,VWS V14.00,2013-01-09 20:03:00,
2013-01-09 14:08:00,51.9,51.1,29.85,West,259,3.0,3.0,97,0.00,,---,0.72,125.00,VWS V14.00,2013-01-09 20:08:00,
2013-01-09 14:13:00,51.8,51.0,29.84,West,259,0.0,4.0,97,0.00,,---,0.72,56.00,VWS V14.00,2013-01-09 20:13:00,
2013-01-09 14:18:00,51.7,50.9,29.84,West,259,0.0,4.0,97,0.00,,---,0.72,81.00,VWS V14.00,2013-01-09 20:18:00,
2013-01-09 14:23:00,51.7,50.9,29.85,West,259,2.0,6.0,97,0.00,,---,0.72,107.00,VWS V14.00,2013-01-09 20:23:00,
2013-01-09 14:28:00,51.7,50.9,29.85,West,259,2.0,6.0,97,0.00,,---,0.72,181.00,VWS V14.00,2013-01-09 20:28:00,
2013-01-09 14:33:00,51.9,51.1,29.84,West,259,3.0,3.0,97,0.00,,---,0.72,185.00,VWS V14.00,2013-01-09 20:33:00,
2013-01-09 14:38:00,52.1,51.3,29.84,West,259,3.0,4.0,97,0.00,,---,0.72,151.00,VWS V14.00,2013-01-09 20:38:00,
2013-01-09 14:43:00,52.2,51.4,29.85,West,259,3.0,4.0,97,0.00,,---,0.72,104.00,VWS V14.00,2013-01-09 20:43:00,
2013-01-09 14:48:00,52.3,51.5,29.88,West,259,2.0,5.0,97,0.00,,---,0.72,60.00,VWS V14.00,2013-01-09 20:48:00,
2013-01-09 14:53:00,52.2,51.4,29.87,West,259,1.0,2.0,97,0.00,,---,0.72,114.00,VWS V14.00,2013-01-09 20:53:00,
2013-01-09 14:58:00,52.2,51.4,29.88,West,259,0.0,2.0,97,0.00,,---,0.72,102.00,VWS V14.00,2013-01-09 20:58:00,
2013-01-09 15:03:00,52.3,51.5,29.88,West,259,0.0,1.0,97,0.00,,---,0.72,105.00,VWS V14.00,2013-01-09 21:03:00,
2013-01-09 15:08:00,52.3,51.5,29.89,West,259,0.0,4.0,97,0.00,,---,0.72,16.00,VWS V14.00,2013-01-09 21:08:00,
2013-01-09 15:13:00,52.3,51.5,29.88,West,259,0.0,0.0,97,0.00,,---,0.72,42.00,VWS V14.00,2013-01-09 21:13:00,
2013-01-09 15:18:00,52.3,51.5,29.89,West,259,1.0,2.0,97,0.00,,---,0.72,33.00,VWS V14.00,2013-01-09 21:18:00,
2013-01-09 15:23:00,52.3,51.5,29.88,West,259,0.0,0.0,97,0.00,,---,0.72,93.00,VWS V14.00,2013-01-09 21:23:00,
2013-01-09 15:28:00,52.2,51.4,29.87,West,259,1.0,1.0,97,0.00,,---,0.72,74.00,VWS V14.00,2013-01-09 21:28:00,
2013-01-09 15:33:00,52.3,51.5,29.88,West,259,0.0,0.0,97,0.00,,---,0.72,53.00,VWS V14.00,2013-01-09 21:33:00,
2013-01-09 15:38:00,52.4,51.6,29.89,West,259,0.0,4.0,97,0.00,,---,0.72,23.00,VWS V14.00,2013-01-09 21:38:00,
2013-01-09 15:43:00,52.4,51.6,29.89,West,259,2.0,4.0,97,0.00,,---,0.72,32.00,VWS V14.00,2013-01-09 21:43:00,
2013-01-09 15:48:00,52.3,51.5,29.88,West,259,0.0,4.0,97,0.00,,---,0.72,51.00,VWS V14.00,2013-01-09 21:48:00,
2013-01-09 15:53:00,52.3,51.5,29.88,West,259,1.0,1.0,97,0.00,,---,0.72,62.00,VWS V14.00,2013-01-09 21:53:00,
2013-01-09 15:58:00,52.4,51.6,29.89,West,259,3.0,4.0,97,0.00,,---,0.72,81.00,VWS V14.00,2013-01-09 21:58:00,
2013-01-09 16:03:00,52.4,51.6,29.90,West,259,3.0,4.0,97,0.00,,---,0.72,63.00,VWS V14.00,2013-01-09 22:03:00,
2013-01-09 16:08:00,52.4,51.6,29.91,West,259,1.0,5.0,97,0.00,,---,0.72,42.00,VWS V14.00,2013-01-09 22:08:00,
2013-01-09 16:13:00,52.4,51.6,29.91,West,259,3.0,6.0,97,0.00,,---,0.72,30.00,VWS V14.00,2013-01-09 22:13:00,
2013-01-09 16:18:00,52.4,51.6,29.92,West,259,3.0,6.0,97,0.00,,---,0.72,28.00,VWS V14.00,2013-01-09 22:18:00,
2013-01-09 16:23:00,52.2,51.4,29.92,West,259,5.0,10.0,97,0.00,,---,0.72,19.00,VWS V14.00,2013-01-09 22:23:00,
2013-01-09 16:28:00,51.9,51.1,29.92,West,259,4.0,10.0,97,0.00,,---,0.72,21.00,VWS V14.00,2013-01-09 22:28:00,
2013-01-09 16:33:00,51.8,51.0,29.92,West,259,4.0,6.0,97,0.01,,---,0.73,23.00,VWS V14.00,2013-01-09 22:33:00,
2013-01-09 16:38:00,51.7,50.9,29.92,West,259,5.0,7.0,97,0.01,,---,0.73,33.00,VWS V14.00,2013-01-09 22:38:00,
2013-01-09 16:43:00,51.7,50.9,29.91,West,259,0.0,4.0,97,0.01,,---,0.73,32.00,VWS V14.00,2013-01-09 22:43:00,
2013-01-09 16:48:00,51.6,50.8,29.91,West,259,0.0,5.0,97,0.01,,---,0.73,47.00,VWS V14.00,2013-01-09 22:48:00,
2013-01-09 16:53:00,51.6,50.8,29.91,West,259,2.0,3.0,97,0.01,,---,0.73,227.00,VWS V14.00,2013-01-09 22:53:00,
2013-01-09 16:58:00,52.0,51.2,29.89,West,259,1.0,5.0,97,0.01,,---,0.73,83.00,VWS V14.00,2013-01-09 22:58:00,
2013-01-09 17:03:00,52.2,51.4,29.89,West,259,2.0,6.0,97,0.01,,---,0.73,91.00,VWS V14.00,2013-01-09 23:03:00,
2013-01-09 17:08:00,52.3,51.5,29.89,West,259,0.0,8.0,97,0.01,,---,0.73,72.00,VWS V14.00,2013-01-09 23:08:00,
2013-01-09 17:13:00,52.3,51.5,29.89,West,259,2.0,4.0,97,0.01,,---,0.73,58.00,VWS V14.00,2013-01-09 23:13:00,
2013-01-09 17:18:00,52.2,51.4,29.89,West,259,0.0,5.0,97,0.01,,---,0.73,54.00,VWS V14.00,2013-01-09 23:18:00,
2013-01-09 17:23:00,52.1,51.3,29.89,West,259,0.0,3.0,97,0.01,,---,0.73,25.00,VWS V14.00,2013-01-09 23:23:00,
2013-01-09 17:28:00,52.0,51.2,29.89,West,259,0.0,3.0,97,0.01,,---,0.73,18.00,VWS V14.00,2013-01-09 23:28:00,
2013-01-09 17:33:00,51.8,51.0,29.90,West,259,0.0,0.0,97,0.01,,---,0.73,12.00,VWS V14.00,2013-01-09 23:33:00,
2013-01-09 17:38:00,51.6,50.5,29.90,West,259,0.0,2.0,96,0.01,,---,0.73,11.00,VWS V14.00,2013-01-09 23:38:00,
2013-01-09 17:43:00,51.4,50.3,29.91,West,259,0.0,2.0,96,0.00,,---,0.73,7.00,VWS V14.00,2013-01-09 23:43:00,
2013-01-09 17:48:00,51.2,50.4,29.91,West,259,0.0,2.0,97,0.00,,---,0.73,5.00,VWS V14.00,2013-01-09 23:48:00,
2013-01-09 17:53:00,51.0,49.9,29.90,West,259,0.0,0.0,96,0.00,,---,0.73,0.00,VWS V14.00,2013-01-09 23:53:00,
2013-01-09 17:58:00,50.9,49.8,29.91,West,259,0.0,0.0,96,0.00,,---,0.73,0.00,VWS V14.00,2013-01-09 23:58:00,
2013-01-09 18:03:00,50.8,49.7,29.92,West,259,0.0,0.0,96,0.00,,---,0.73,0.00,VWS V14.00,2013-01-10 00:03:00,
2013-01-09 18:08:00,50.6,49.5,29.92,West,259,0.0,0.0,96,0.00,,---,0.73,0.00,VWS V14.00,2013-01-10 00:08:00,
2013-01-09 18:13:00,50.5,49.4,29.93,West,259,0.0,0.0,96,0.00,,---,0.73,0.00,VWS V14.00,2013-01-10 00:13:00,
2013-01-09 18:18:00,50.5,49.4,29.93,West,259,0.0,1.0,96,0.00,,---,0.73,0.00,VWS V14.00,2013-01-10 00:18:00,
2013-01-09 18:23:00,50.5,49.4,29.92,West,259,0.0,0.0,96,0.00,,---,0.73,0.00,VWS V14.00,2013-01-10 00:23:00,
2013-01-09 18:28:00,50.4,49.3,29.91,West,259,0.0,1.0,96,0.00,,---,0.73,0.00,VWS V14.00,2013-01-10 00:28:00,
2013-01-09 18:33:00,50.5,49.4,29.91,West,259,0.0,0.0,96,0.00,,---,0.73,0.00,VWS V14.00,2013-01-10 00:33:00,
2013-01-09 18:38:00,50.4,49.3,29.92,West,259,0.0,0.0,96,0.00,,---,0.73,0.00,VWS V14.00,2013-01-10 00:38:00,
2013-01-09 18:43:00,50.4,49.3,29.93,West,259,0.0,0.0,96,0.00,,---,0.73,0.00,VWS V14.00,2013-01-10 00:43:00,
2013-01-09 18:48:00,50.5,49.4,29.92,West,259,0.0,0.0,96,0.00,,---,0.73,0.00,VWS V14.00,2013-01-10 00:48:00,
2013-01-09 18:53:00,50.4,49.3,29.92,West,259,0.0,0.0,96,0.00,,---,0.73,0.00,VWS V14.00,2013-01-10 00:53:00,
2013-01-09 18:58:00,50.4,49.3,29.93,West,259,0.0,0.0,96,0.00,,---,0.73,0.00,VWS V14.00,2013-01-10 00:58:00,
2013-01-09 19:03:00,50.4,49.3,29.93,West,259,0.0,0.0,96,0.00,,---,0.73,0.00,VWS V14.00,2013-01-10 01:03:00,
2013-01-09 19:08:00,50.4,49.3,29.92,West,259,0.0,1.0,96,0.00,,---,0.73,0.00,VWS V14.00,2013-01-10 01:08:00,
2013-01-09 19:13:00,50.4,49.3,29.92,West,259,0.0,0.0,96,0.00,,---,0.73,0.00,VWS V14.00,2013-01-10 01:13:00,
2013-01-09 19:18:00,50.3,49.2,29.92,West,259,0.0,0.0,96,0.00,,---,0.73,0.00,VWS V14.00,2013-01-10 01:18:00,
2013-01-09 19:23:00,50.3,49.2,29.92,West,259,0.0,0.0,96,0.00,,---,0.73,0.00,VWS V14.00,2013-01-10 01:23:00,
2013-01-09 19:28:00,50.3,49.2,29.92,West,259,0.0,0.0,96,0.00,,---,0.73,0.00,VWS V14.00,2013-01-10 01:28:00,
2013-01-09 19:33:00,50.2,49.1,29.93,West,259,0.0,0.0,96,0.00,,---,0.73,0.00,VWS V14.00,2013-01-10 01:33:00,
2013-01-09 19:38:00,50.1,49.3,29.94,West,259,0.0,0.0,97,0.00,,---,0.73,0.00,VWS V14.00,2013-01-10 01:38:00,
2013-01-09 19:43:00,50.1,49.3,29.94,West,259,0.0,0.0,97,0.00,,---,0.73,0.00,VWS V14.00,2013-01-10 01:43:00,
2013-01-09 19:48:00,50.0,49.2,29.94,West,259,0.0,0.0,97,0.00,,---,0.73,0.00,VWS V14.00,2013-01-10 01:48:00,
2013-01-09 19:53:00,50.0,49.2,29.94,West,259,0.0,0.0,97,0.00,,---,0.73,0.00,VWS V14.00,2013-01-10 01:53:00,
2013-01-09 19:58:00,50.0,49.2,29.94,West,259,2.0,2.0,97,0.00,,---,0.73,0.00,VWS V14.00,2013-01-10 01:58:00,
2013-01-09 20:03:00,50.1,49.3,29.94,West,259,0.0,0.0,97,0.00,,---,0.73,0.00,VWS V14.00,2013-01-10 02:03:00,
2013-01-09 20:08:00,50.1,49.3,29.94,West,259,0.0,0.0,97,0.00,,---,0.73,0.00,VWS V14.00,2013-01-10 02:08:00,
2013-01-09 20:13:00,50.1,49.3,29.94,West,259,0.0,0.0,97,0.00,,---,0.73,0.00,VWS V14.00,2013-01-10 02:13:00,
2013-01-09 20:18:00,50.2,49.4,29.94,West,259,0.0,0.0,97,0.00,,---,0.73,0.00,VWS V14.00,2013-01-10 02:18:00,
2013-01-09 20:23:00,50.2,49.4,29.94,West,259,0.0,0.0,97,0.00,,---,0.73,0.00,VWS V14.00,2013-01-10 02:23:00,
2013-01-09 20:28:00,50.2,49.4,29.94,West,259,0.0,2.0,97,0.00,,---,0.73,0.00,VWS V14.00,2013-01-10 02:28:00,
2013-01-09 20:33:00,50.2,49.4,29.94,West,259,0.0,0.0,97,0.00,,---,0.73,0.00,VWS V14.00,2013-01-10 02:33:00,
2013-01-09 20:38:00,50.1,49.3,29.93,West,259,3.0,4.0,97,0.00,,---,0.73,0.00,VWS V14.00,2013-01-10 02:38:00,
2013-01-09 20:43:00,50.1,49.3,29.93,West,259,3.0,4.0,97,0.00,,---,0.73,0.00,VWS V14.00,2013-01-10 02:43:00,
2013-01-09 20:48:00,49.9,48.8,29.93,West,259,5.0,5.0,96,0.00,,---,0.73,0.00,VWS V14.00,2013-01-10 02:48:00,
2013-01-09 20:53:00,49.7,48.9,29.94,West,259,3.0,3.0,97,0.00,,---,0.73,0.00,VWS V14.00,2013-01-10 02:53:00,
2013-01-09 20:58:00,49.7,48.9,29.94,West,259,1.0,4.0,97,0.00,,---,0.73,0.00,VWS V14.00,2013-01-10 02:58:00,
2013-01-09 21:03:00,49.6,48.8,29.94,West,259,2.0,2.0,97,0.00,,---,0.73,0.00,VWS V14.00,2013-01-10 03:03:00,
2013-01-09 21:08:00,49.6,48.8,29.94,West,259,0.0,2.0,97,0.00,,---,0.73,0.00,VWS V14.00,2013-01-10 03:08:00,
2013-01-09 21:13:00,49.6,48.8,29.94,West,259,0.0,0.0,97,0.00,,---,0.73,0.00,VWS V14.00,2013-01-10 03:13:00,
2013-01-09 21:18:00,49.6,48.8,29.94,West,259,0.0,0.0,97,0.00,,---,0.73,0.00,VWS V14.00,2013-01-10 03:18:00,
2013-01-09 21:23:00,49.6,48.8,29.93,West,259,0.0,0.0,97,0.00,,---,0.73,0.00,VWS V14.00,2013-01-10 03:23:00,
2013-01-09 21:28:00,49.6,48.8,29.94,West,259,0.0,2.0,97,0.00,,---,0.73,0.00,VWS V14.00,2013-01-10 03:28:00,
2013-01-09 21:33:00,49.6,48.8,29.93,West,259,0.0,0.0,97,0.00,,---,0.73,0.00,VWS V14.00,2013-01-10 03:33:00,
2013-01-09 21:38:00,49.7,48.9,29.94,West,259,0.0,0.0,97,0.00,,---,0.73,0.00,VWS V14.00,2013-01-10 03:38:00,
2013-01-09 21:43:00,49.7,48.9,29.94,West,259,0.0,0.0,97,0.00,,---,0.73,0.00,VWS V14.00,2013-01-10 03:43:00,
2013-01-09 21:48:00,49.7,48.9,29.95,West,259,0.0,2.0,97,0.00,,---,0.73,0.00,VWS V14.00,2013-01-10 03:48:00,
2013-01-09 21:53:00,49.8,49.0,29.95,West,259,0.0,0.0,97,0.00,,---,0.73,0.00,VWS V14.00,2013-01-10 03:53:00,
2013-01-09 21:58:00,49.8,49.0,29.96,West,259,0.0,0.0,97,0.00,,---,0.73,0.00,VWS V14.00,2013-01-10 03:58:00,
2013-01-09 22:03:00,49.9,49.1,29.96,West,259,0.0,0.0,97,0.00,,---,0.73,0.00,VWS V14.00,2013-01-10 04:03:00,
2013-01-09 22:08:00,49.9,49.1,29.96,West,259,0.0,0.0,97,0.00,,---,0.73,0.00,VWS V14.00,2013-01-10 04:08:00,
2013-01-09 22:13:00,49.9,49.1,29.95,West,259,0.0,0.0,97,0.00,,---,0.73,0.00,VWS V14.00,2013-01-10 04:13:00,
2013-01-09 22:18:00,49.8,49.0,29.95,West,259,0.0,0.0,97,0.00,,---,0.73,0.00,VWS V14.00,2013-01-10 04:18:00,
2013-01-09 22:23:00,49.8,49.0,29.96,West,259,0.0,0.0,97,0.00,,---,0.73,0.00,VWS V14.00,2013-01-10 04:23:00,
2013-01-09 22:28:00,49.8,49.0,29.96,West,259,0.0,4.0,97,0.00,,---,0.73,0.00,VWS V14.00,2013-01-10 04:28:00,
2013-01-09 22:33:00,49.9,49.1,29.96,West,259,1.0,2.0,97,0.00,,---,0.73,0.00,VWS V14.00,2013-01-10 04:33:00,
2013-01-09 22:38:00,50.0,49.2,29.96,West,259,0.0,3.0,97,0.00,,---,0.73,0.00,VWS V14.00,2013-01-10 04:38:00,
2013-01-09 22:43:00,50.2,49.4,29.95,West,259,1.0,4.0,97,0.00,,---,0.73,0.00,VWS V14.00,2013-01-10 04:43:00,
2013-01-09 22:48:00,50.3,49.5,29.95,West,259,0.0,4.0,97,0.00,,---,0.73,0.00,VWS V14.00,2013-01-10 04:48:00,
2013-01-09 22:53:00,50.3,49.5,29.96,West,259,0.0,3.0,97,0.00,,---,0.73,0.00,VWS V14.00,2013-01-10 04:53:00,
2013-01-09 22:58:00,50.3,49.5,29.96,West,259,0.0,3.0,97,0.00,,---,0.73,0.00,VWS V14.00,2013-01-10 04:58:00,
2013-01-09 23:00:00,50.2,49.4,29.95,West,259,0.0,3.0,97,0.00,,---,0.73,0.00,VWS V14.00,2013-01-10 05:00:00,
2013-01-09 23:01:00,50.2,49.4,29.95,West,259,2.0,3.0,97,0.00,,---,0.73,0.00,VWS V14.00,2013-01-10 05:01:00,
2013-01-09 23:06:00,50.3,49.5,29.96,West,259,0.0,0.0,97,0.00,,---,0.73,0.00,VWS V14.00,2013-01-10 05:06:00,
2013-01-09 23:11:00,50.2,49.4,29.96,West,259,0.0,0.0,97,0.00,,---,0.73,0.00,VWS V14.00,2013-01-10 05:11:00,
2013-01-09 23:16:00,50.2,49.4,29.97,West,259,0.0,0.0,97,0.00,,---,0.73,0.00,VWS V14.00,2013-01-10 05:16:00,
2013-01-09 23:21:00,50.1,49.3,29.97,West,259,0.0,0.0,97,0.00,,---,0.73,0.00,VWS V14.00,2013-01-10 05:21:00,
2013-01-09 23:26:00,49.9,49.1,29.98,West,259,1.0,2.0,97,0.00,,---,0.73,0.00,VWS V14.00,2013-01-10 05:26:00,
2013-01-09 23:31:00,49.8,49.0,29.97,West,259,1.0,6.0,97,0.00,,---,0.73,0.00,VWS V14.00,2013-01-10 05:31:00,
2013-01-09 23:36:00,49.8,49.0,29.96,West,259,1.0,2.0,97,0.00,,---,0.73,0.00,VWS V14.00,2013-01-10 05:36:00,
2013-01-09 23:41:00,49.8,49.0,29.96,West,259,0.0,5.0,97,0.00,,---,0.73,0.00,VWS V14.00,2013-01-10 05:41:00,
2013-01-09 23:46:00,49.8,49.0,29.96,West,259,0.0,2.0,97,0.00,,---,0.73,0.00,VWS V14.00,2013-01-10 05:46:00,
2013-01-09 23:51:00,49.6,48.8,29.95,West,259,0.0,3.0,97,0.00,,---,0.73,0.00,VWS V14.00,2013-01-10 05:51:00,
2013-01-09 23:56:00,49.6,48.8,29.96,West,259,1.0,2.0,97,0.00,,---,0.73,0.00,VWS V14.00,2013-01-10 05:56:00,